Time;durP1;ratioP1;P1;durP2;ratioP2;P2;SDS_P1;SDS_P2;PMS_P1;PMS_P2;Temp;Humidity;BMP_temperature;BMP_pressure;BME280_temperature;BME280_humidity;BME280_pressure;Samples;Min_cycle;Max_cycle;Signal;HPM_P1;HPM_P2
2022/12/29 00:01:15;;;;;;;3.57;2.20;;;6.40;99.90;;;;;;8327384;28;20186;-69
2022/12/29 00:05:16;;;;;;;3.17;2.00;;;6.40;99.90;;;;;;8327508;28;20187;-69
2022/12/29 00:09:17;;;;;;;2.57;1.90;;;6.50;99.90;;;;;;8326725;28;20283;-69
2022/12/29 00:17:37;;;;;;;3.00;2.10;;;6.50;99.90;;;;;;8329409;28;20217;-69
2022/12/29 00:47:43;;;;;;;5.57;2.00;;;6.40;99.90;;;;;;8328381;28;20274;-69
2022/12/29 00:51:44;;;;;;;2.13;1.70;;;6.50;99.90;;;;;;8329705;28;20186;-68
2022/12/29 00:55:45;;;;;;;2.60;1.40;;;6.50;99.90;;;;;;8324265;28;20193;-70
2022/12/29 00:59:46;;;;;;;3.47;2.00;;;6.50;99.90;;;;;;8330777;28;21115;-69
2022/12/29 01:03:47;;;;;;;1.87;1.50;;;6.50;99.90;;;;;;8328536;28;20933;-69
2022/12/29 01:07:48;;;;;;;3.17;1.50;;;6.50;99.90;;;;;;8324445;28;20190;-69
2022/12/29 01:11:49;;;;;;;2.33;1.33;;;6.50;99.90;;;;;;8326838;28;20185;-69
2022/12/29 01:15:51;;;;;;;2.40;1.33;;;6.50;99.90;;;;;;8327896;28;20194;-69
2022/12/29 01:19:52;;;;;;;3.33;1.90;;;6.50;99.90;;;;;;8329234;28;20188;-69
2022/12/29 01:23:52;;;;;;;2.20;1.33;;;6.50;99.90;;;;;;8325892;28;20190;-69
2022/12/29 01:27:53;;;;;;;2.33;1.60;;;6.50;99.90;;;;;;8327152;28;20185;-69
2022/12/29 01:31:54;;;;;;;2.47;1.70;;;6.50;99.90;;;;;;8328685;28;20244;-69
2022/12/29 01:35:54;;;;;;;3.37;1.47;;;6.50;99.90;;;;;;8325326;28;20226;-69
2022/12/29 01:39:55;;;;;;;1.73;1.47;;;6.50;99.90;;;;;;8320941;28;20234;-69
2022/12/29 01:44:00;;;;;;;2.47;1.50;;;6.50;99.90;;;;;;8325354;28;20233;-69
2022/12/29 01:48:04;;;;;;;2.13;1.53;;;6.60;99.90;;;;;;8323948;28;20638;-69
2022/12/29 01:52:07;;;;;;;2.17;1.67;;;6.80;99.90;;;;;;8328446;28;20201;-69
2022/12/29 01:56:13;;;;;;;2.53;1.77;;;6.90;99.90;;;;;;8324424;28;20248;-69
2022/12/29 02:00:14;;;;;;;2.87;1.50;;;7.00;99.90;;;;;;8329114;28;20305;-68
2022/12/29 02:04:15;;;;;;;2.23;1.57;;;7.20;99.90;;;;;;8330842;28;20186;-68
2022/12/29 02:08:17;;;;;;;3.63;1.80;;;7.30;99.90;;;;;;8324759;28;20647;-69
2022/12/29 02:12:20;;;;;;;3.57;1.53;;;7.50;99.90;;;;;;8322433;28;20196;-69
2022/12/29 02:16:21;;;;;;;2.87;1.60;;;7.50;99.90;;;;;;8325985;28;20312;-69
2022/12/29 02:20:58;;;;;;;2.27;1.57;;;7.70;99.90;;;;;;8325673;28;20191;-69
2022/12/29 02:25:27;;;;;;;2.30;1.30;;;7.70;99.90;;;;;;8329119;28;20186;-69
2022/12/29 02:30:13;;;;;;;3.33;1.70;;;7.70;99.90;;;;;;8326895;28;20192;-69
2022/12/29 02:34:40;;;;;;;2.53;1.53;;;7.80;99.90;;;;;;8321528;28;20229;-69
2022/12/29 02:39:04;;;;;;;2.57;1.43;;;7.80;99.90;;;;;;8329594;28;20218;-69
2022/12/29 02:43:27;;;;;;;1.83;1.27;;;7.80;99.90;;;;;;8326371;28;20714;-69
2022/12/29 02:47:42;;;;;;;2.40;1.50;;;7.80;99.90;;;;;;8324943;28;20189;-71
2022/12/29 02:52:17;;;;;;;2.07;1.53;;;7.80;99.90;;;;;;8323034;28;20187;-69
2022/12/29 02:56:18;;;;;;;2.07;1.60;;;7.80;99.90;;;;;;8322264;28;20260;-69
2022/12/29 03:00:19;;;;;;;3.63;1.50;;;7.80;99.90;;;;;;8305905;28;20218;-69
2022/12/29 03:04:39;;;;;;;3.20;1.57;;;7.80;99.90;;;;;;8327332;28;20239;-69
2022/12/29 03:08:54;;;;;;;1.70;1.40;;;7.80;99.90;;;;;;8342744;28;20273;-69
2022/12/29 03:17:51;;;;;;;1.40;1.20;;;7.80;99.90;;;;;;8327811;28;20275;-69
2022/12/29 03:26:19;;;;;;;2.77;1.47;;;7.80;99.90;;;;;;8323118;28;20335;-68
2022/12/29 03:30:21;;;;;;;2.47;1.40;;;7.70;99.90;;;;;;8327710;28;20280;-68
2022/12/29 03:34:23;;;;;;;1.33;1.03;;;7.70;99.90;;;;;;8334120;28;20237;-69
2022/12/29 03:38:47;;;;;;;1.80;1.40;;;7.70;99.90;;;;;;8327735;28;20207;-68
2022/12/29 03:42:48;;;;;;;1.30;1.20;;;7.60;99.90;;;;;;8330774;28;20239;-68
2022/12/29 03:46:49;;;;;;;1.93;1.30;;;7.60;99.90;;;;;;8331700;28;20307;-68
2022/12/29 03:50:50;;;;;;;1.77;1.00;;;7.50;99.90;;;;;;8329154;28;20186;-68
2022/12/29 03:54:51;;;;;;;2.50;1.07;;;7.40;99.90;;;;;;8325932;28;20192;-68
2022/12/29 03:58:52;;;;;;;1.73;1.27;;;7.40;99.90;;;;;;8328596;28;20211;-68
2022/12/29 04:02:53;;;;;;;1.73;1.03;;;7.50;99.90;;;;;;8335157;28;20232;-68
2022/12/29 04:06:53;;;;;;;1.57;1.07;;;7.60;99.90;;;;;;8330292;28;20185;-68
2022/12/29 04:10:54;;;;;;;2.00;1.20;;;7.80;99.90;;;;;;8329603;28;20260;-68
2022/12/29 04:14:55;;;;;;;1.70;1.20;;;8.00;99.90;;;;;;8331505;28;20189;-68
2022/12/29 04:18:56;;;;;;;1.40;1.00;;;8.20;99.90;;;;;;8331573;28;20229;-69
2022/12/29 04:23:06;;;;;;;2.33;1.30;;;8.30;99.90;;;;;;8327468;28;20224;-68
2022/12/29 04:27:07;;;;;;;2.57;1.00;;;8.50;99.90;;;;;;8333862;28;20201;-68
2022/12/29 04:31:08;;;;;;;1.97;0.97;;;8.70;99.90;;;;;;8331552;28;20289;-68
2022/12/29 04:35:08;;;;;;;1.37;1.00;;;8.80;99.90;;;;;;8328002;28;20819;-68
2022/12/29 04:39:09;;;;;;;1.20;0.90;;;8.90;99.90;;;;;;8326827;28;20223;-68
2022/12/29 04:43:10;;;;;;;2.40;1.30;;;8.90;99.90;;;;;;8324048;28;20638;-68
2022/12/29 04:47:11;;;;;;;1.50;0.90;;;8.80;99.90;;;;;;8328535;28;20191;-67
2022/12/29 04:51:12;;;;;;;3.00;1.13;;;8.80;99.90;;;;;;8323787;28;20257;-68
2022/12/29 04:55:13;;;;;;;3.23;1.27;;;8.90;99.90;;;;;;8324724;28;20269;-68
2022/12/29 04:59:14;;;;;;;1.20;0.80;;;8.90;99.90;;;;;;8330612;28;20224;-68
2022/12/29 05:03:15;;;;;;;1.37;1.07;;;8.90;99.90;;;;;;8330599;28;20190;-67
2022/12/29 05:07:15;;;;;;;1.33;1.00;;;8.90;99.90;;;;;;8326100;28;20196;-67
2022/12/29 05:11:16;;;;;;;1.13;0.67;;;8.90;99.90;;;;;;8328719;28;20216;-68
2022/12/29 05:15:17;;;;;;;1.30;1.00;;;8.90;99.90;;;;;;8331317;28;20185;-68
2022/12/29 05:19:18;;;;;;;1.77;1.00;;;8.90;99.90;;;;;;8346774;28;20218;-68
2022/12/29 05:23:19;;;;;;;2.20;1.20;;;8.80;99.90;;;;;;8329669;28;20260;-68
2022/12/29 05:27:19;;;;;;;2.80;1.10;;;8.80;99.90;;;;;;8327703;28;20182;-67
2022/12/29 05:31:20;;;;;;;1.10;0.80;;;8.90;99.90;;;;;;8327211;28;20266;-68
2022/12/29 05:35:21;;;;;;;1.87;1.00;;;9.00;99.90;;;;;;8327695;28;20225;-68
2022/12/29 05:39:22;;;;;;;2.33;1.00;;;9.00;99.90;;;;;;8326994;28;20359;-68
2022/12/29 05:43:23;;;;;;;1.57;0.93;;;9.10;99.90;;;;;;8324835;28;20344;-67
2022/12/29 05:47:24;;;;;;;1.60;0.97;;;9.20;99.90;;;;;;8330866;28;20802;-67
2022/12/29 05:51:25;;;;;;;1.37;0.90;;;9.30;99.90;;;;;;8330157;28;20190;-68
2022/12/29 05:55:25;;;;;;;3.23;1.53;;;9.30;99.90;;;;;;8331181;28;20243;-67
2022/12/29 05:59:26;;;;;;;1.57;1.10;;;9.40;99.90;;;;;;8325334;28;20220;-68
2022/12/29 06:03:27;;;;;;;1.97;1.17;;;9.40;99.90;;;;;;8326256;28;20229;-68
2022/12/29 06:07:28;;;;;;;2.40;1.57;;;9.30;99.90;;;;;;8323442;28;20190;-69
2022/12/29 06:11:29;;;;;;;1.63;1.20;;;9.40;99.90;;;;;;8330013;28;20286;-69
2022/12/29 06:15:29;;;;;;;2.70;1.30;;;9.40;99.90;;;;;;8328353;28;20246;-70
2022/12/29 06:19:30;;;;;;;3.30;1.40;;;9.40;99.90;;;;;;8327513;28;20602;-68
2022/12/29 06:23:32;;;;;;;2.40;0.97;;;9.40;99.90;;;;;;8325749;28;20218;-68
2022/12/29 06:27:33;;;;;;;3.30;1.30;;;9.40;99.90;;;;;;8329592;28;20192;-68
2022/12/29 06:31:34;;;;;;;1.63;1.17;;;9.40;99.90;;;;;;8339509;28;20186;-69
2022/12/29 06:35:34;;;;;;;2.70;1.23;;;9.40;99.90;;;;;;8326894;28;20231;-68
2022/12/29 06:39:35;;;;;;;3.23;1.23;;;9.40;99.90;;;;;;8323168;28;20209;-68
2022/12/29 06:43:37;;;;;;;3.90;1.53;;;9.40;99.90;;;;;;8327002;28;20235;-68
2022/12/29 06:47:38;;;;;;;1.87;1.20;;;9.40;99.90;;;;;;8318713;28;20214;-68
2022/12/29 06:51:39;;;;;;;1.70;1.10;;;9.40;99.90;;;;;;8324742;28;20190;-67
2022/12/29 06:55:42;;;;;;;2.30;1.30;;;9.30;99.90;;;;;;8323958;28;20220;-68
2022/12/29 06:59:42;;;;;;;1.90;1.03;;;9.30;99.90;;;;;;8325492;28;20245;-68
2022/12/29 07:03:43;;;;;;;2.53;1.30;;;9.20;99.90;;;;;;8319935;28;20182;-68
2022/12/29 07:07:44;;;;;;;1.80;1.20;;;9.20;99.90;;;;;;8326804;28;20197;-67
2022/12/29 07:11:45;;;;;;;3.20;1.37;;;9.30;99.90;;;;;;8320082;28;20281;-68
2022/12/29 07:15:46;;;;;;;3.60;1.10;;;9.30;99.90;;;;;;8331981;28;20193;-68
2022/12/29 07:19:46;;;;;;;1.80;1.20;;;9.40;99.90;;;;;;8327200;28;20297;-68
2022/12/29 07:23:47;;;;;;;1.77;1.20;;;9.30;99.90;;;;;;8325383;28;20190;-68
2022/12/29 07:27:48;;;;;;;2.70;1.20;;;9.30;99.90;;;;;;8327268;28;20195;-67
2022/12/29 07:31:49;;;;;;;1.47;1.10;;;9.40;99.90;;;;;;8328365;28;20190;-68
2022/12/29 07:35:50;;;;;;;3.87;1.50;;;9.40;99.90;;;;;;8333863;28;20230;-68
2022/12/29 07:39:51;;;;;;;1.83;1.00;;;9.50;99.90;;;;;;8327600;28;20223;-68
2022/12/29 07:43:51;;;;;;;3.23;1.37;;;9.50;99.90;;;;;;8323000;28;20184;-68
2022/12/29 07:47:52;;;;;;;1.70;1.27;;;9.60;99.90;;;;;;8320546;28;20291;-68
2022/12/29 07:51:53;;;;;;;2.27;1.13;;;9.60;99.90;;;;;;8328812;28;20193;-67
2022/12/29 07:55:54;;;;;;;2.97;1.37;;;9.70;99.90;;;;;;8315391;28;20305;-66
2022/12/29 07:59:54;;;;;;;1.87;1.17;;;9.70;99.90;;;;;;8330175;28;20273;-67
2022/12/29 08:03:55;;;;;;;2.63;1.30;;;9.80;99.90;;;;;;8329988;28;20195;-66
2022/12/29 08:07:56;;;;;;;1.77;1.20;;;9.80;99.90;;;;;;8326738;28;20198;-65
2022/12/29 08:11:57;;;;;;;3.17;1.50;;;9.70;99.90;;;;;;8330008;28;20238;-66
2022/12/29 08:15:58;;;;;;;4.50;1.70;;;9.70;99.90;;;;;;8321252;28;20264;-66
2022/12/29 08:19:59;;;;;;;3.67;1.27;;;9.80;99.90;;;;;;8328498;28;20211;-69
2022/12/29 08:24:00;;;;;;;1.87;0.93;;;9.80;99.90;;;;;;8326011;28;20189;-66
2022/12/29 08:28:01;;;;;;;2.40;1.20;;;9.80;99.90;;;;;;8327613;28;20188;-67
2022/12/29 08:32:02;;;;;;;1.53;1.00;;;9.80;99.90;;;;;;8331161;28;20194;-67
2022/12/29 08:36:05;;;;;;;2.27;1.30;;;9.80;99.90;;;;;;8330035;28;20246;-67
2022/12/29 08:40:07;;;;;;;2.77;1.10;;;9.80;99.90;;;;;;8329655;28;20193;-66
2022/12/29 08:44:08;;;;;;;1.57;1.00;;;9.90;99.90;;;;;;8328183;28;20492;-68
2022/12/29 08:48:09;;;;;;;2.80;1.27;;;9.90;99.90;;;;;;8336920;28;20196;-67
2022/12/29 08:52:09;;;;;;;2.17;1.10;;;9.80;99.90;;;;;;8329344;28;20203;-66
2022/12/29 08:56:11;;;;;;;3.10;1.43;;;9.80;99.90;;;;;;8324579;28;20191;-67
2022/12/29 09:00:12;;;;;;;2.10;1.23;;;9.80;99.90;;;;;;8333818;28;20202;-68
2022/12/29 09:04:13;;;;;;;2.53;1.20;;;9.80;99.90;;;;;;8330049;28;20188;-67
2022/12/29 09:08:14;;;;;;;3.10;1.20;;;9.80;99.90;;;;;;8323669;28;20296;-67
2022/12/29 09:12:16;;;;;;;2.47;1.13;;;9.80;99.90;;;;;;8324434;28;20201;-66
2022/12/29 09:16:18;;;;;;;2.30;1.30;;;9.80;99.90;;;;;;8320709;28;20240;-66
2022/12/29 09:20:19;;;;;;;1.50;1.00;;;9.80;99.90;;;;;;8325029;28;20196;-67
2022/12/29 09:24:20;;;;;;;1.53;1.00;;;10.00;99.90;;;;;;8329248;28;20192;-67
2022/12/29 09:28:21;;;;;;;2.47;1.40;;;10.10;99.90;;;;;;8325197;28;20245;-66
2022/12/29 09:32:22;;;;;;;4.00;0.83;;;10.30;99.90;;;;;;8323736;28;20194;-67
2022/12/29 09:36:23;;;;;;;2.30;0.97;;;10.40;99.90;;;;;;8318507;28;20206;-66
2022/12/29 09:40:33;;;;;;;1.97;1.17;;;10.60;99.90;;;;;;8322346;28;20209;-65
2022/12/29 09:44:48;;;;;;;1.40;0.90;;;10.70;92.80;;;;;;8319927;28;20186;-66
2022/12/29 09:49:15;;;;;;;2.40;1.07;;;10.70;92.50;;;;;;8316184;28;20259;-65
2022/12/29 09:53:31;;;;;;;3.23;1.00;;;10.50;93.50;;;;;;8323835;28;20201;-67
2022/12/29 09:57:54;;;;;;;3.23;1.30;;;10.50;91.60;;;;;;8324474;28;20206;-68
2022/12/29 10:02:23;;;;;;;2.13;1.10;;;10.70;86.40;;;;;;8322507;28;20242;-68
2022/12/29 10:06:31;;;;;;;1.87;1.17;;;10.70;77.10;;;;;;8325786;28;20192;-67
2022/12/29 10:10:53;;;;;;;2.53;1.00;;;10.70;77.80;;;;;;8324564;28;20188;-68
2022/12/29 10:15:10;;;;;;;3.03;1.30;;;10.90;71.10;;;;;;8320923;28;20189;-67
2022/12/29 10:19:48;;;;;;;2.77;1.20;;;11.10;56.20;;;;;;8329398;28;20220;-67
2022/12/29 10:23:52;;;;;;;2.47;1.20;;;11.30;51.20;;;;;;8325616;28;20542;-70
2022/12/29 10:27:56;;;;;;;2.03;1.40;;;11.30;38.90;;;;;;8326540;28;20187;-67
2022/12/29 10:32:05;;;;;;;2.73;1.07;;;11.40;30.90;;;;;;8324450;28;20193;-67
2022/12/29 10:36:21;;;;;;;3.93;1.60;;;11.50;23.00;;;;;;8322652;28;20222;-67
2022/12/29 10:40:45;;;;;;;4.50;1.10;;;11.80;13.00;;;;;;8326819;28;20186;-66
2022/12/29 10:44:46;;;;;;;3.73;1.10;;;11.80;1.00;;;;;;8331935;28;20280;-67
2022/12/29 10:48:47;;;;;;;2.97;1.40;;;11.70;1.00;;;;;;8333712;28;20193;-67
2022/12/29 10:52:49;;;;;;;1.40;1.00;;;11.60;1.00;;;;;;8323640;28;20216;-67
2022/12/29 10:56:56;;;;;;;2.60;1.37;;;11.60;1.00;;;;;;8326828;28;20201;-68
2022/12/29 11:00:58;;;;;;;3.13;1.20;;;11.60;1.00;;;;;;8328853;28;20190;-67
2022/12/29 11:05:15;;;;;;;2.90;1.33;;;11.50;1.00;;;;;;8320803;28;20427;-65
2022/12/29 11:09:31;;;;;;;2.50;1.33;;;11.40;1.00;;;;;;8332049;28;20254;-70
2022/12/29 11:13:34;;;;;;;1.53;0.90;;;11.30;1.00;;;;;;8325134;28;20245;-67
2022/12/29 11:17:48;;;;;;;1.63;1.03;;;11.20;1.00;;;;;;8327633;28;20533;-67
2022/12/29 11:21:49;;;;;;;2.80;1.10;;;11.30;1.00;;;;;;8337040;28;20207;-67
2022/12/29 11:26:20;;;;;;;1.60;1.10;;;11.40;1.00;;;;;;8322984;28;20182;-66
2022/12/29 11:30:27;;;;;;;3.33;1.40;;;11.50;1.00;;;;;;8337816;28;20187;-66
2022/12/29 11:34:35;;;;;;;2.83;1.00;;;11.50;1.00;;;;;;8329785;28;20277;-67
2022/12/29 11:38:42;;;;;;;2.17;1.30;;;11.50;1.00;;;;;;8341294;28;20225;-67
2022/12/29 11:42:55;;;;;;;2.57;1.20;;;11.50;1.00;;;;;;8322141;28;20239;-67
2022/12/29 11:46:56;;;;;;;3.20;1.37;;;11.50;1.00;;;;;;8321168;28;20190;-68
2022/12/29 11:51:01;;;;;;;3.43;1.40;;;11.50;1.00;;;;;;8324046;28;20186;-67
2022/12/29 11:55:07;;;;;;;5.13;1.30;;;11.70;1.00;;;;;;8330343;28;20191;-66
2022/12/29 11:59:38;;;;;;;2.60;1.23;;;11.80;1.00;;;;;;8328096;28;20277;-68
2022/12/29 12:03:48;;;;;;;1.80;1.30;;;11.80;1.00;;;;;;8334096;28;20276;-66
2022/12/29 12:08:13;;;;;;;3.60;1.10;;;12.00;1.00;;;;;;8322860;28;20241;-67
2022/12/29 12:12:37;;;;;;;2.93;1.23;;;12.00;1.00;;;;;;8329761;28;20214;-67
2022/12/29 12:16:41;;;;;;;1.33;0.97;;;12.00;1.00;;;;;;8325050;28;20303;-67
2022/12/29 12:20:48;;;;;;;2.17;1.13;;;11.90;1.00;;;;;;8329135;28;20245;-67
2022/12/29 12:24:55;;;;;;;3.13;1.13;;;11.80;1.00;;;;;;8337442;28;20182;-66
2022/12/29 12:29:04;;;;;;;2.50;1.43;;;11.80;1.00;;;;;;8328483;28;20186;-67
2022/12/29 12:33:16;;;;;;;2.53;1.50;;;11.70;1.00;;;;;;8330993;28;20197;-68
2022/12/29 12:37:22;;;;;;;2.00;1.43;;;11.60;1.00;;;;;;8332006;28;20209;-70
2022/12/29 12:41:42;;;;;;;2.23;1.23;;;11.50;1.00;;;;;;8328854;28;20183;-68
2022/12/29 12:46:00;;;;;;;2.10;1.37;;;11.60;1.00;;;;;;8324014;28;20201;-69
2022/12/29 12:50:07;;;;;;;3.20;1.20;;;11.70;1.00;;;;;;8323733;28;20193;-68
2022/12/29 12:54:11;;;;;;;2.47;1.43;;;11.80;1.00;;;;;;8328562;28;20715;-69
2022/12/29 12:58:34;;;;;;;1.87;1.20;;;11.80;1.00;;;;;;8326863;28;20300;-69
2022/12/29 13:02:40;;;;;;;2.60;1.53;;;11.70;1.00;;;;;;8328924;28;20501;-69
2022/12/29 13:07:09;;;;;;;3.97;1.67;;;11.60;1.00;;;;;;8326482;28;20185;-69
2022/12/29 13:11:47;;;;;;;3.20;1.40;;;11.50;1.00;;;;;;8339354;28;20202;-69
2022/12/29 13:15:54;;;;;;;2.27;1.40;;;11.40;1.00;;;;;;8325575;28;20187;-69
2022/12/29 13:20:30;;;;;;;2.50;1.60;;;11.30;1.00;;;;;;8328844;28;20209;-68
2022/12/29 13:24:50;;;;;;;3.50;1.60;;;11.20;1.00;;;;;;8317719;28;20202;-68
2022/12/29 13:29:06;;;;;;;2.43;1.20;;;11.10;1.00;;;;;;8325032;28;20190;-68
2022/12/29 13:33:29;;;;;;;2.73;1.70;;;11.10;1.60;;;;;;8323921;28;20214;-68
2022/12/29 13:37:33;;;;;;;1.80;1.47;;;11.00;4.60;;;;;;8322178;28;20206;-69
2022/12/29 13:41:41;;;;;;;3.43;1.50;;;10.90;6.70;;;;;;8334285;28;20688;-69
2022/12/29 13:45:44;;;;;;;1.80;1.30;;;10.90;10.20;;;;;;8322745;28;20189;-69
2022/12/29 13:49:47;;;;;;;3.43;1.50;;;10.90;11.80;;;;;;8329688;28;20190;-68
2022/12/29 13:54:18;;;;;;;4.07;1.40;;;10.90;9.80;;;;;;8323989;28;20281;-68
2022/12/29 13:58:32;;;;;;;4.43;1.60;;;11.00;9.00;;;;;;8324891;28;20295;-68
2022/12/29 14:03:11;;;;;;;4.40;1.53;;;11.00;9.30;;;;;;8322628;28;20193;-68
2022/12/29 14:07:17;;;;;;;3.60;1.60;;;11.00;9.40;;;;;;8320670;28;20205;-70
2022/12/29 14:11:22;;;;;;;3.13;1.57;;;11.00;9.70;;;;;;8327839;28;20275;-69
2022/12/29 14:15:25;;;;;;;3.20;1.50;;;10.90;9.60;;;;;;8320516;28;20225;-68
2022/12/29 14:19:32;;;;;;;3.57;1.53;;;11.00;8.40;;;;;;8325386;28;20295;-69
2022/12/29 14:23:42;;;;;;;1.93;1.10;;;10.90;9.30;;;;;;8330623;28;20194;-68
2022/12/29 14:27:44;;;;;;;1.93;1.50;;;10.90;9.20;;;;;;8323632;28;20474;-69
2022/12/29 14:31:45;;;;;;;2.83;1.47;;;10.90;11.50;;;;;;8327805;28;20246;-69
2022/12/29 14:35:49;;;;;;;3.30;1.33;;;10.90;11.80;;;;;;8322840;28;20228;-68
2022/12/29 14:40:14;;;;;;;3.10;1.53;;;10.80;14.20;;;;;;8317450;28;20875;-69
2022/12/29 14:44:20;;;;;;;2.17;1.20;;;10.70;14.10;;;;;;8324466;28;20224;-69
2022/12/29 14:48:32;;;;;;;2.67;1.47;;;10.70;18.10;;;;;;8320024;28;20189;-69
2022/12/29 14:52:55;;;;;;;2.23;1.43;;;10.70;16.30;;;;;;8323183;28;20272;-68
2022/12/29 14:57:03;;;;;;;2.57;1.40;;;10.60;18.20;;;;;;8331354;28;20449;-69
2022/12/29 15:01:14;;;;;;;2.07;1.43;;;10.60;19.40;;;;;;8323666;28;20347;-69
2022/12/29 15:05:36;;;;;;;2.43;1.43;;;10.60;21.10;;;;;;8325569;28;20236;-68
2022/12/29 15:09:49;;;;;;;2.17;1.40;;;10.50;24.60;;;;;;8323676;28;20237;-67
2022/12/29 15:13:50;;;;;;;3.07;1.40;;;10.40;27.70;;;;;;8324147;28;20189;-65
2022/12/29 15:17:51;;;;;;;3.30;1.70;;;10.40;29.10;;;;;;8328814;28;20390;-66
2022/12/29 15:21:54;;;;;;;2.90;1.60;;;10.40;30.50;;;;;;8329271;28;20203;-66
2022/12/29 15:25:58;;;;;;;4.63;1.53;;;10.30;33.00;;;;;;8325855;28;20284;-69
2022/12/29 15:30:01;;;;;;;2.70;1.73;;;10.30;35.90;;;;;;8335425;28;20187;-69
2022/12/29 15:34:11;;;;;;;3.30;1.70;;;10.30;38.90;;;;;;8325057;28;20220;-69
2022/12/29 15:38:22;;;;;;;2.17;1.60;;;10.30;38.60;;;;;;8331413;28;20406;-69
2022/12/29 15:43:04;;;;;;;4.07;1.80;;;10.40;38.40;;;;;;8329573;28;20281;-69
2022/12/29 15:47:28;;;;;;;2.70;1.93;;;10.30;42.10;;;;;;8330468;28;20233;-69
2022/12/29 15:51:34;;;;;;;3.33;1.80;;;10.30;43.10;;;;;;8340657;28;20221;-69
2022/12/29 15:55:38;;;;;;;2.93;1.60;;;10.20;51.20;;;;;;8329324;28;20249;-68
2022/12/29 15:59:47;;;;;;;2.93;1.77;;;10.20;52.50;;;;;;8331362;28;20221;-70
2022/12/29 16:03:48;;;;;;;2.73;2.00;;;10.30;53.90;;;;;;8329535;28;20508;-69
2022/12/29 16:07:59;;;;;;;3.33;2.00;;;10.40;51.10;;;;;;8322313;28;20525;-68
2022/12/29 16:12:06;;;;;;;4.77;1.67;;;10.30;73.70;;;;;;8329465;28;20201;-70
2022/12/29 16:16:14;;;;;;;2.50;1.70;;;10.30;57.30;;;;;;8326351;28;20292;-69
2022/12/29 16:20:20;;;;;;;3.73;1.77;;;10.30;59.80;;;;;;8329017;28;20221;-69
2022/12/29 16:24:25;;;;;;;6.47;2.00;;;10.30;61.90;;;;;;8320117;28;20312;-69
2022/12/29 16:28:38;;;;;;;3.67;2.60;;;10.30;66.80;;;;;;8324069;28;20199;-68
2022/12/29 16:32:46;;;;;;;5.47;3.10;;;10.20;76.30;;;;;;8325158;28;20587;-69
2022/12/29 16:36:56;;;;;;;6.67;4.17;;;10.10;86.90;;;;;;8325032;28;20236;-69
2022/12/29 16:41:02;;;;;;;7.20;4.23;;;9.90;96.00;;;;;;8323097;28;20199;-68
2022/12/29 16:45:18;;;;;;;8.00;3.97;;;9.70;99.90;;;;;;8323134;28;20184;-69
2022/12/29 16:49:19;;;;;;;5.17;3.27;;;9.60;99.90;;;;;;8312233;28;20234;-66
2022/12/29 16:53:27;;;;;;;4.87;2.90;;;9.50;99.90;;;;;;8324661;28;20194;-65
2022/12/29 16:57:31;;;;;;;5.50;3.03;;;9.40;99.90;;;;;;8326638;28;20211;-67
2022/12/29 17:01:38;;;;;;;4.53;2.70;;;9.40;99.90;;;;;;8327506;28;20218;-66
2022/12/29 17:05:39;;;;;;;4.57;2.80;;;9.40;99.90;;;;;;8324807;28;20194;-67
2022/12/29 17:09:40;;;;;;;6.03;2.73;;;9.30;99.90;;;;;;8325645;28;20195;-67
2022/12/29 17:13:41;;;;;;;5.23;2.97;;;9.40;99.90;;;;;;8314249;28;20235;-66
2022/12/29 17:17:45;;;;;;;5.10;2.83;;;9.40;99.90;;;;;;8326451;28;20215;-66
2022/12/29 17:21:46;;;;;;;5.17;2.90;;;9.40;99.90;;;;;;8319141;28;20238;-66
2022/12/29 17:25:47;;;;;;;3.37;2.40;;;9.60;99.90;;;;;;8324455;28;20217;-66
2022/12/29 17:29:48;;;;;;;4.70;2.60;;;9.80;99.90;;;;;;8320871;28;20225;-66
2022/12/29 17:33:49;;;;;;;3.93;2.17;;;9.90;99.90;;;;;;8318376;28;20204;-66
2022/12/29 17:37:51;;;;;;;5.33;2.80;;;9.90;99.90;;;;;;8317501;28;20228;-65
2022/12/29 17:41:51;;;;;;;3.60;2.30;;;10.00;99.90;;;;;;8318447;28;20192;-66
2022/12/29 17:45:55;;;;;;;3.70;2.37;;;10.00;99.90;;;;;;8318339;28;20205;-65
2022/12/29 17:49:55;;;;;;;2.90;2.10;;;10.00;99.90;;;;;;8329218;28;20195;-65
2022/12/29 17:53:57;;;;;;;5.00;2.80;;;9.90;99.90;;;;;;8318822;28;20197;-66
2022/12/29 17:57:58;;;;;;;3.10;2.30;;;9.90;99.90;;;;;;8321998;28;20259;-66
2022/12/29 18:01:59;;;;;;;4.60;2.60;;;9.80;99.90;;;;;;8319845;28;20181;-65
2022/12/29 18:06:00;;;;;;;4.20;2.40;;;9.80;99.90;;;;;;8319935;28;20275;-65
2022/12/29 18:10:00;;;;;;;4.37;2.53;;;9.80;99.90;;;;;;8314277;28;20219;-67
2022/12/29 18:14:01;;;;;;;3.70;2.40;;;9.80;99.90;;;;;;8320087;28;20191;-66
2022/12/29 18:18:17;;;;;;;8.40;2.47;;;9.80;99.90;;;;;;8322846;28;20215;-66
2022/12/29 18:22:18;;;;;;;4.07;2.50;;;9.80;99.90;;;;;;8330909;28;20196;-66
2022/12/29 18:26:27;;;;;;;5.10;2.73;;;9.80;99.90;;;;;;8317328;28;20199;-67
2022/12/29 18:30:28;;;;;;;6.13;3.03;;;9.70;99.90;;;;;;8339797;28;20197;-66
2022/12/29 18:34:29;;;;;;;6.37;3.23;;;9.70;99.90;;;;;;8333784;28;20267;-66
2022/12/29 18:38:31;;;;;;;5.03;3.10;;;9.70;99.90;;;;;;8326944;28;20214;-66
2022/12/29 18:42:31;;;;;;;4.90;2.83;;;9.70;99.90;;;;;;8323093;28;20192;-66
2022/12/29 18:46:32;;;;;;;4.90;2.83;;;9.70;99.90;;;;;;8333063;28;20199;-66
2022/12/29 18:50:33;;;;;;;5.13;3.60;;;9.70;99.90;;;;;;8337160;28;20192;-66
2022/12/29 18:54:34;;;;;;;6.20;3.73;;;9.70;99.90;;;;;;8340113;28;20196;-66
2022/12/29 18:58:36;;;;;;;5.70;3.13;;;9.60;99.90;;;;;;8316055;28;20223;-67
2022/12/29 19:02:37;;;;;;;5.37;2.90;;;9.50;99.90;;;;;;8322827;28;20185;-66
2022/12/29 19:06:38;;;;;;;5.50;3.33;;;9.40;99.90;;;;;;8327370;28;20189;-66
2022/12/29 19:10:40;;;;;;;8.20;3.20;;;9.30;99.90;;;;;;8316584;28;20184;-66
2022/12/29 19:14:42;;;;;;;6.50;3.20;;;9.30;99.90;;;;;;8312131;28;20191;-67
2022/12/29 19:18:43;;;;;;;7.40;3.10;;;9.10;99.90;;;;;;8318466;28;20385;-66
2022/12/29 19:22:44;;;;;;;5.40;3.10;;;9.10;99.90;;;;;;8324587;28;20239;-66
2022/12/29 19:26:45;;;;;;;5.20;3.17;;;9.00;99.90;;;;;;8317615;28;20187;-66
2022/12/29 19:30:47;;;;;;;6.63;3.60;;;8.90;99.90;;;;;;8325568;28;20271;-66
2022/12/29 19:34:48;;;;;;;6.70;3.80;;;8.80;99.90;;;;;;8332066;28;20221;-65
2022/12/29 19:38:49;;;;;;;7.17;3.60;;;8.70;99.90;;;;;;8322440;28;20217;-66
2022/12/29 19:42:50;;;;;;;4.70;3.20;;;8.70;99.90;;;;;;8338001;28;20263;-67
2022/12/29 19:46:51;;;;;;;4.77;3.43;;;8.60;99.90;;;;;;8335345;28;20190;-67
2022/12/29 19:50:52;;;;;;;5.43;3.20;;;8.50;99.90;;;;;;8315134;28;20225;-67
2022/12/29 19:54:53;;;;;;;5.50;3.13;;;8.30;99.90;;;;;;8320519;28;20187;-66
2022/12/29 19:58:56;;;;;;;4.63;3.33;;;8.10;99.90;;;;;;8324425;28;20209;-66
2022/12/29 20:02:57;;;;;;;5.00;3.10;;;8.00;99.90;;;;;;8317133;28;20214;-66
2022/12/29 20:06:58;;;;;;;4.77;3.40;;;7.90;99.90;;;;;;8329556;28;20266;-66
2022/12/29 20:11:11;;;;;;;6.27;3.40;;;7.90;99.90;;;;;;8322369;28;20198;-67
2022/12/29 20:15:13;;;;;;;5.97;3.37;;;7.90;99.90;;;;;;8319922;28;20273;-67
2022/12/29 20:19:14;;;;;;;5.00;3.13;;;7.90;99.90;;;;;;8338038;28;20225;-66
2022/12/29 20:23:15;;;;;;;4.27;2.83;;;7.90;99.90;;;;;;8320853;28;20186;-66
2022/12/29 20:27:16;;;;;;;5.50;3.63;;;7.80;99.90;;;;;;8324531;28;20217;-66
2022/12/29 20:31:22;;;;;;;6.17;3.53;;;7.70;99.90;;;;;;8328460;28;20189;-66
2022/12/29 20:35:23;;;;;;;4.63;3.23;;;7.60;1.00;;;;;;8321800;28;20213;-66
2022/12/29 20:39:24;;;;;;;9.17;3.50;;;7.50;1.00;;;;;;8326264;28;20227;-67
2022/12/29 20:43:25;;;;;;;5.90;3.27;;;7.60;1.00;;;;;;8328880;28;20199;-66
2022/12/29 20:47:26;;;;;;;6.33;3.23;;;7.60;1.00;;;;;;8325271;28;20227;-66
2022/12/29 20:51:29;;;;;;;6.30;4.03;;;7.50;1.00;;;;;;8323447;28;20300;-66
2022/12/29 20:55:30;;;;;;;5.70;3.23;;;7.50;1.00;;;;;;8326021;28;20221;-66
2022/12/29 20:59:31;;;;;;;5.90;3.37;;;7.50;1.00;;;;;;8329611;28;20213;-66
2022/12/29 21:03:33;;;;;;;5.00;3.40;;;7.40;1.00;;;;;;8318871;28;20605;-66
2022/12/29 21:07:34;;;;;;;5.80;3.27;;;7.40;1.00;;;;;;8318306;28;20259;-66
2022/12/29 21:11:34;;;;;;;5.83;3.60;;;7.30;1.00;;;;;;8333501;28;20208;-66
2022/12/29 21:15:35;;;;;;;4.70;3.23;;;7.30;1.00;;;;;;8326993;28;20218;-66
2022/12/29 21:19:36;;;;;;;5.87;3.10;;;7.20;1.00;;;;;;8327175;28;20210;-67
2022/12/29 21:23:38;;;;;;;5.57;3.13;;;7.20;1.00;;;;;;8343196;28;20273;-67
2022/12/29 21:27:45;;;;;;;5.03;3.33;;;7.10;1.00;;;;;;8326807;28;20193;-66
2022/12/29 21:31:46;;;;;;;5.97;3.57;;;7.10;1.00;;;;;;8321159;28;20217;-66
2022/12/29 21:35:47;;;;;;;6.37;3.70;;;7.10;1.00;;;;;;8327224;28;20222;-67
2022/12/29 21:39:48;;;;;;;6.13;3.03;;;7.20;1.00;;;;;;8330394;28;20218;-67
2022/12/29 21:48:22;;;;;;;5.27;3.20;;;7.40;1.00;;;;;;8328622;28;20436;-66
2022/12/29 21:52:23;;;;;;;4.87;3.60;;;7.50;1.00;;;;;;8323143;28;20190;-66
2022/12/29 21:56:25;;;;;;;6.60;3.63;;;7.50;1.00;;;;;;8325842;28;20197;-67
2022/12/29 22:13:24;;;;;;;3.63;2.50;;;7.50;1.00;;;;;;8326617;28;20190;-67
2022/12/29 22:17:25;;;;;;;5.30;3.10;;;7.40;1.00;;;;;;8326920;28;20214;-67
2022/12/29 22:21:26;;;;;;;3.77;2.70;;;7.20;1.00;;;;;;8326219;28;20182;-66
2022/12/29 22:25:28;;;;;;;5.37;2.73;;;7.10;1.00;;;;;;8326357;28;20182;-67
2022/12/29 22:29:28;;;;;;;4.17;2.60;;;7.00;1.00;;;;;;8324989;28;20192;-66